Time;durP1;ratioP1;P1;durP2;ratioP2;P2;SDS_P1;SDS_P2;PMS_P1;PMS_P2;Temp;Humidity;BMP_temperature;BMP_pressure;BME280_temperature;BME280_humidity;BME280_pressure;Samples;Min_cycle;Max_cycle;Signal;HPM_P1;HPM_P2
2023/03/15 00:01:54;;;;;;;0.73;0.73;;;;;;;12.06;56.46;98340.28;4423799;32;34755;-65
2023/03/15 00:04:23;;;;;;;1.17;0.85;;;;;;;12.49;55.80;98342.03;4423444;32;33403;-66
2023/03/15 00:06:51;;;;;;;1.17;0.93;;;;;;;12.43;55.66;98353.41;4424049;32;34675;-66
2023/03/15 00:09:18;;;;;;;0.75;0.75;;;;;;;12.05;56.47;98360.88;4423674;32;34849;-65
2023/03/15 00:11:46;;;;;;;1.00;0.90;;;;;;;12.31;55.30;98360.88;4423651;32;34296;-65
2023/03/15 00:14:14;;;;;;;2.12;0.88;;;;;;;12.20;55.50;98357.59;4409950;32;33487;-65
2023/03/15 00:16:42;;;;;;;1.08;0.75;;;;;;;11.86;56.04;98363.78;4423840;32;35132;-64
2023/03/15 00:19:10;;;;;;;0.62;0.62;;;;;;;12.20;55.59;98366.53;4423624;32;32834;-64
2023/03/15 00:21:39;;;;;;;1.95;1.17;;;;;;;11.77;55.80;98376.22;4423628;32;34085;-65
2023/03/15 00:24:06;;;;;;;0.82;0.82;;;;;;;11.47;57.12;98374.81;4423646;32;34547;-67
2023/03/15 00:26:34;;;;;;;0.88;0.75;;;;;;;11.60;56.60;98379.78;4423664;32;34129;-65
2023/03/15 00:29:02;;;;;;;0.65;0.65;;;;;;;11.44;56.32;98385.84;4423627;32;32929;-66
2023/03/15 00:31:29;;;;;;;1.40;0.90;;;;;;;11.89;55.34;98377.69;4423715;32;35024;-64
2023/03/15 00:33:57;;;;;;;3.80;1.40;;;;;;;11.79;55.34;98365.38;4409795;32;34499;-66
2023/03/15 00:36:24;;;;;;;1.15;0.88;;;;;;;11.54;55.93;98369.69;4423503;32;33944;-64
2023/03/15 00:38:54;;;;;;;0.98;0.88;;;;;;;11.47;56.33;98365.94;4423775;32;34185;-65
2023/03/15 00:41:23;;;;;;;0.80;0.80;;;;;;;11.87;54.88;98368.97;4423309;32;34040;-66
2023/03/15 00:43:50;;;;;;;1.05;0.70;;;;;;;11.98;54.90;98372.41;4423279;32;32013;-65
2023/03/15 00:46:18;;;;;;;0.93;0.90;;;;;;;11.39;56.49;98372.88;4423414;32;34622;-65
2023/03/15 00:48:48;;;;;;;0.95;0.77;;;;;;;11.46;55.59;98346.34;4423233;32;35074;-68
2023/03/15 00:51:18;;;;;;;0.50;0.50;;;;;;;11.32;56.26;98342.34;4421675;32;34002;-65
2023/03/15 00:53:47;;;;;;;1.00;0.90;;;;;;;10.95;56.93;98338.00;4417690;32;32561;-65
2023/03/15 00:56:20;;;;;;;1.87;1.05;;;;;;;11.36;55.79;98337.53;4416810;32;33854;-65
2023/03/15 00:58:48;;;;;;;2.30;1.10;;;;;;;11.83;54.37;98337.25;4418652;32;33874;-65
2023/03/15 01:01:20;;;;;;;0.80;0.80;;;;;;;11.66;54.62;98336.28;4418750;32;32520;-65
2023/03/15 01:03:47;;;;;;;3.83;1.15;;;;;;;11.55;54.30;98334.69;4419673;32;32853;-64
2023/03/15 01:06:21;;;;;;;1.10;1.00;;;;;;;11.53;54.15;98343.91;4420271;32;33892;-66
2023/03/15 01:08:50;;;;;;;1.40;0.98;;;;;;;11.54;53.61;98343.72;4419964;32;33881;-66
2023/03/15 01:11:21;;;;;;;0.62;0.62;;;;;;;10.93;55.11;98339.97;4418927;32;34833;-68
2023/03/15 01:13:50;;;;;;;0.68;0.68;;;;;;;11.22;53.60;98346.13;4420005;32;32448;-66
2023/03/15 01:16:18;;;;;;;0.70;0.62;;;;;;;10.90;55.55;98355.50;4417353;32;32593;-64
2023/03/15 01:18:46;;;;;;;1.12;1.00;;;;;;;11.05;53.90;98342.44;4420860;32;33799;-65
2023/03/15 01:21:14;;;;;;;0.85;0.80;;;;;;;11.18;54.19;98350.94;4422833;32;33900;-67
2023/03/15 01:23:45;;;;;;;0.98;0.85;;;;;;;10.68;55.79;98340.69;4420685;32;34203;-65
2023/03/15 01:26:14;;;;;;;2.05;1.23;;;;;;;10.88;54.68;98344.97;4422018;32;34943;-65
2023/03/15 01:28:43;;;;;;;1.98;1.02;;;;;;;11.02;53.68;98343.59;4418856;32;32856;-66
2023/03/15 01:31:22;;;;;;;1.08;0.77;;;;;;;11.09;53.78;98338.47;4418829;32;33904;-65
2023/03/15 01:33:50;;;;;;;2.55;1.45;;;;;;;10.70;54.01;98336.03;4418493;32;34610;-67
2023/03/15 01:36:18;;;;;;;0.75;0.70;;;;;;;11.02;53.68;98343.59;4420895;32;33957;-65
2023/03/15 01:38:45;;;;;;;1.00;0.88;;;;;;;10.84;53.62;98337.34;4419522;32;34027;-65
2023/03/15 01:41:14;;;;;;;1.52;0.95;;;;;;;11.06;52.93;98341.44;4421664;32;33861;-64
2023/03/15 01:43:45;;;;;;;1.55;0.85;;;;;;;11.19;52.48;98349.94;4419960;32;34246;-64
2023/03/15 01:46:23;;;;;;;1.55;0.80;;;;;;;11.12;52.95;98359.59;4418514;32;33994;-65
2023/03/15 01:48:57;;;;;;;0.93;0.90;;;;;;;11.70;51.43;98348.38;4420287;32;33917;-64
2023/03/15 01:51:52;;;;;;;1.05;0.95;;;;;;;11.48;51.76;98354.22;4422479;32;32806;-67
2023/03/15 01:54:26;;;;;;;1.73;1.10;;;;;;;11.30;52.15;98351.53;4420352;32;33575;-65
2023/03/15 01:57:01;;;;;;;1.35;0.95;;;;;;;11.22;51.88;98359.50;4408822;32;34537;-68
2023/03/15 01:59:35;;;;;;;0.90;0.80;;;;;;;11.77;51.77;98359.31;4407707;32;32634;-65
2023/03/15 02:02:04;;;;;;;0.95;0.88;;;;;;;11.68;51.76;98355.72;4402960;32;32151;-65
2023/03/15 02:04:45;;;;;;;0.82;0.73;;;;;;;12.08;50.24;98357.91;4405965;32;33258;-66
2023/03/15 02:07:16;;;;;;;2.28;0.82;;;;;;;12.25;49.50;98356.16;4406509;32;35035;-65
2023/03/15 02:09:50;;;;;;;1.15;0.90;;;;;;;11.24;51.51;98349.50;4422097;32;35286;-65
2023/03/15 02:12:18;;;;;;;0.85;0.85;;;;;;;11.14;52.52;98347.72;4421932;32;34888;-65
2023/03/15 02:14:48;;;;;;;0.77;0.77;;;;;;;11.61;50.69;98354.66;4408243;32;31842;-66
2023/03/15 02:17:17;;;;;;;0.62;0.62;;;;;;;10.92;52.63;98358.88;4407403;32;34927;-65
2023/03/15 02:19:57;;;;;;;0.82;0.82;;;;;;;11.31;51.77;98362.13;4422168;32;34999;-65
2023/03/15 02:22:30;;;;;;;1.48;0.85;;;;;;;11.32;51.72;98366.47;4402837;32;33499;-67
2023/03/15 02:25:06;;;;;;;1.75;0.93;;;;;;;10.93;52.47;98360.56;4414765;32;33139;-64
2023/03/15 02:27:34;;;;;;;7.03;1.20;;;;;;;10.85;52.44;98355.09;4404314;32;33744;-65
2023/03/15 02:30:03;;;;;;;1.20;0.62;;;;;;;10.54;53.54;98351.91;4418278;32;34086;-65
2023/03/15 02:32:30;;;;;;;1.30;0.98;;;;;;;10.96;52.40;98349.53;4408901;32;32368;-67
2023/03/15 02:34:58;;;;;;;1.65;0.95;;;;;;;10.66;53.21;98356.06;4420386;32;33035;-64
2023/03/15 02:37:26;;;;;;;0.85;0.82;;;;;;;10.35;54.15;98350.16;4420366;32;34207;-64
2023/03/15 02:39:53;;;;;;;1.00;0.90;;;;;;;10.20;54.99;98352.41;4417336;32;32243;-65
2023/03/15 02:42:22;;;;;;;0.98;0.88;;;;;;;10.09;55.20;98342.75;4422145;32;33969;-65
2023/03/15 02:44:50;;;;;;;0.62;0.62;;;;;;;10.31;54.90;98364.81;4419516;32;33450;-64
2023/03/15 02:47:24;;;;;;;0.80;0.80;;;;;;;10.56;54.47;98363.28;4401333;32;32474;-64
2023/03/15 02:49:52;;;;;;;0.88;0.82;;;;;;;10.45;54.74;98351.78;4397666;32;35072;-64
2023/03/15 02:52:21;;;;;;;1.75;1.17;;;;;;;10.49;55.01;98363.03;4401298;32;34127;-65
2023/03/15 02:54:49;;;;;;;0.60;0.60;;;;;;;10.37;55.94;98358.84;4400531;32;33273;-63
2023/03/15 02:57:18;;;;;;;0.93;0.77;;;;;;;10.75;54.12;98363.19;4402272;32;33824;-66
2023/03/15 02:59:47;;;;;;;1.37;1.00;;;;;;;10.51;54.87;98354.87;4405031;32;34123;-65
2023/03/15 03:02:14;;;;;;;1.20;1.10;;;;;;;10.11;56.65;98354.16;4407548;32;32875;-64
2023/03/15 03:04:42;;;;;;;1.10;0.88;;;;;;;10.18;57.01;98349.06;4406011;32;32272;-65
2023/03/15 03:07:10;;;;;;;0.70;0.70;;;;;;;9.92;57.84;98359.53;4403243;32;33898;-64
2023/03/15 03:09:37;;;;;;;0.70;0.70;;;;;;;10.20;56.67;98368.47;4397903;32;32684;-66
2023/03/15 03:12:06;;;;;;;1.55;1.15;;;;;;;10.59;55.67;98360.31;4404730;32;34073;-67
2023/03/15 03:14:33;;;;;;;1.08;0.90;;;;;;;10.53;55.80;98358.22;4405520;32;33396;-64
2023/03/15 03:17:01;;;;;;;0.60;0.60;;;;;;;10.33;56.48;98357.47;4406949;32;33929;-64
2023/03/15 03:19:29;;;;;;;3.00;1.17;;;;;;;10.13;57.05;98357.50;4405426;32;32458;-64
2023/03/15 03:21:57;;;;;;;0.90;0.88;;;;;;;10.37;56.51;98364.22;4405696;32;32532;-65
2023/03/15 03:24:25;;;;;;;1.25;1.02;;;;;;;9.98;57.38;98358.97;4406104;32;34505;-63
2023/03/15 03:26:56;;;;;;;4.68;2.08;;;;;;;9.86;58.04;98366.31;4400146;32;32434;-65
2023/03/15 03:29:25;;;;;;;1.25;1.00;;;;;;;10.33;56.84;98360.97;4402195;32;34034;-63
2023/03/15 03:31:53;;;;;;;0.85;0.82;;;;;;;10.59;56.48;98360.31;4405896;32;34943;-64
2023/03/15 03:34:21;;;;;;;1.10;1.00;;;;;;;10.77;55.27;98345.16;4405278;32;33233;-65
2023/03/15 03:36:49;;;;;;;1.77;1.67;;;;;;;10.23;56.62;98344.94;4406989;32;33841;-65
2023/03/15 03:39:18;;;;;;;1.90;0.80;;;;;;;10.00;56.16;98352.50;4405280;32;34938;-66
2023/03/15 03:41:46;;;;;;;0.95;0.95;;;;;;;10.35;54.68;98344.81;4401655;32;33899;-66
2023/03/15 03:44:13;;;;;;;15.93;1.35;;;;;;;10.22;55.48;98350.47;4405881;32;32023;-65
2023/03/15 03:46:41;;;;;;;1.23;0.93;;;;;;;9.98;55.12;98345.59;4410994;32;33560;-65
2023/03/15 03:49:08;;;;;;;3.22;1.35;;;;;;;10.03;55.12;98341.50;4418485;32;32466;-64
2023/03/15 03:51:36;;;;;;;2.17;1.25;;;;;;;10.01;54.57;98334.63;4419088;32;33593;-63
2023/03/15 03:54:04;;;;;;;1.45;1.15;;;;;;;10.16;54.09;98335.00;4414148;32;32113;-65
2023/03/15 03:56:31;;;;;;;1.02;0.90;;;;;;;10.41;53.86;98330.84;4407175;32;33884;-66
2023/03/15 03:58:59;;;;;;;2.22;1.15;;;;;;;9.87;55.57;98335.94;4418492;32;33376;-63
2023/03/15 04:01:27;;;;;;;2.12;1.15;;;;;;;10.52;53.54;98345.84;4420647;32;34849;-66
2023/03/15 04:03:55;;;;;;;1.37;1.05;;;;;;;11.07;51.90;98341.28;4422540;32;32387;-66
2023/03/15 04:06:22;;;;;;;1.83;1.05;;;;;;;11.20;51.73;98348.94;4423171;32;33639;-64
2023/03/15 04:08:50;;;;;;;1.85;0.98;;;;;;;10.37;54.07;98356.19;4418341;32;34333;-66
2023/03/15 04:11:18;;;;;;;1.27;1.10;;;;;;;10.24;53.89;98362.69;4421314;32;34291;-66
2023/03/15 04:13:48;;;;;;;1.62;1.25;;;;;;;10.33;53.90;98370.84;4418082;32;34284;-67
2023/03/15 04:16:15;;;;;;;0.85;0.75;;;;;;;10.38;53.81;98387.31;4421814;32;34455;-65
2023/03/15 04:18:45;;;;;;;1.35;1.10;;;;;;;10.26;54.03;98390.16;4415895;32;33113;-65
2023/03/15 04:21:12;;;;;;;1.10;0.85;;;;;;;10.39;53.33;98405.88;4420478;32;33983;-64
2023/03/15 04:23:41;;;;;;;0.75;0.75;;;;;;;10.44;52.47;98406.28;4416597;32;33443;-65
2023/03/15 04:26:09;;;;;;;0.70;0.70;;;;;;;9.79;54.28;98416.81;4414932;32;34591;-64
2023/03/15 04:28:37;;;;;;;1.10;0.93;;;;;;;10.32;51.93;98403.94;4407496;32;33886;-64
2023/03/15 04:31:09;;;;;;;0.52;0.50;;;;;;;10.17;51.78;98401.69;4418565;32;35003;-67
2023/03/15 04:33:37;;;;;;;1.05;0.90;;;;;;;9.72;51.45;98428.19;4420224;32;34509;-64
2023/03/15 04:36:06;;;;;;;1.10;1.00;;;;;;;10.07;49.78;98413.41;4418946;32;33563;-65
2023/03/15 04:38:34;;;;;;;0.70;0.70;;;;;;;10.25;50.10;98433.06;4421274;32;35187;-65
2023/03/15 04:41:09;;;;;;;0.60;0.60;;;;;;;9.55;50.71;98438.59;4419522;32;34114;-65
2023/03/15 04:43:37;;;;;;;1.02;0.80;;;;;;;9.99;50.04;98439.03;4403978;32;33249;-65
2023/03/15 04:46:05;;;;;;;0.60;0.60;;;;;;;9.96;50.04;98438.47;4417043;32;33686;-63
2023/03/15 04:48:35;;;;;;;0.93;0.80;;;;;;;10.23;49.08;98443.03;4421809;32;33988;-64
2023/03/15 04:51:04;;;;;;;1.45;1.30;;;;;;;9.82;50.20;98450.41;4417516;32;34137;-64
2023/03/15 04:53:32;;;;;;;0.93;0.93;;;;;;;10.44;48.80;98462.47;4423243;32;33343;-64
2023/03/15 04:56:00;;;;;;;0.85;0.70;;;;;;;9.97;49.74;98467.72;4420786;32;34536;-70
2023/03/15 04:58:31;;;;;;;2.80;1.42;;;;;;;10.41;48.63;98472.62;4421687;32;33867;-67
2023/03/15 05:01:00;;;;;;;0.80;0.80;;;;;;;10.49;49.37;98491.44;4415876;32;33726;-69
2023/03/15 05:03:28;;;;;;;0.70;0.70;;;;;;;10.06;48.76;98474.03;4422249;32;33506;-69
2023/03/15 05:05:56;;;;;;;0.65;0.65;;;;;;;10.41;48.53;98483.31;4413821;32;33955;-69
2023/03/15 05:08:24;;;;;;;0.75;0.73;;;;;;;9.90;49.39;98495.16;4419302;32;34088;-68
2023/03/15 05:10:51;;;;;;;1.23;0.95;;;;;;;9.02;51.20;98489.69;4411771;32;34148;-75
2023/03/15 05:13:21;;;;;;;1.65;1.37;;;;;;;9.53;50.20;98474.44;4417812;32;33446;-72
2023/03/15 05:15:49;;;;;;;0.75;0.75;;;;;;;8.96;51.07;98484.03;4420583;32;32506;-74
2023/03/15 05:18:17;;;;;;;0.80;0.80;;;;;;;9.40;50.35;98477.37;4420066;32;33881;-67
2023/03/15 05:20:46;;;;;;;2.20;1.40;;;;;;;9.01;51.41;98471.97;4420042;32;34895;-68
2023/03/15 05:23:15;;;;;;;1.45;0.93;;;;;;;8.90;51.46;98466.75;4420573;32;33701;-68
2023/03/15 05:25:42;;;;;;;2.72;1.50;;;;;;;9.44;50.84;98478.81;4416184;32;33812;-67
2023/03/15 05:28:10;;;;;;;1.58;1.15;;;;;;;8.79;51.95;98475.66;4418922;32;35196;-68
2023/03/15 05:30:38;;;;;;;2.03;1.67;;;;;;;8.95;52.27;98467.16;4416510;32;34980;-67
2023/03/15 05:33:06;;;;;;;1.33;1.20;;;;;;;8.72;51.98;98465.69;4419670;32;33082;-68
2023/03/15 05:35:34;;;;;;;1.40;1.30;;;;;;;9.31;50.92;98476.41;4416638;32;33823;-71
2023/03/15 05:38:02;;;;;;;1.40;1.30;;;;;;;9.10;51.77;98475.66;4419282;32;34799;-67
2023/03/15 05:40:30;;;;;;;1.27;1.12;;;;;;;9.17;52.08;98478.59;4421196;32;34554;-69
2023/03/15 05:42:59;;;;;;;1.35;1.25;;;;;;;8.99;52.18;98475.72;4421536;32;33177;-67
2023/03/15 05:45:27;;;;;;;1.27;1.17;;;;;;;8.55;53.34;98467.16;4420140;32;33263;-68
2023/03/15 05:47:55;;;;;;;2.00;1.80;;;;;;;9.36;51.30;98461.78;4416761;32;34908;-69
2023/03/15 05:50:23;;;;;;;2.05;1.50;;;;;;;9.26;51.43;98467.13;4416601;32;32917;-68
2023/03/15 05:52:51;;;;;;;2.17;1.45;;;;;;;9.22;51.40;98463.03;4419541;32;33505;-67
2023/03/15 05:55:19;;;;;;;3.62;1.77;;;;;;;9.04;51.76;98460.16;4418814;32;33619;-69
2023/03/15 05:57:49;;;;;;;1.85;1.20;;;;;;;9.20;51.39;98470.34;4415421;32;33904;-68
2023/03/15 06:00:17;;;;;;;1.75;1.08;;;;;;;8.60;53.71;98467.59;4420422;32;35576;-67
2023/03/15 06:02:47;;;;;;;3.60;1.50;;;;;;;8.06;54.46;98464.19;4421356;32;34210;-68
2023/03/15 06:05:15;;;;;;;1.17;1.08;;;;;;;8.16;54.12;98469.56;4418795;32;34925;-67
2023/03/15 06:07:45;;;;;;;1.37;1.25;;;;;;;8.27;54.75;98465.97;4415963;32;34952;-67
2023/03/15 06:10:13;;;;;;;1.67;1.45;;;;;;;8.07;54.70;98468.53;4421085;32;33766;-67
2023/03/15 06:12:41;;;;;;;1.65;1.40;;;;;;;8.27;54.71;98468.66;4419762;32;33251;-67
2023/03/15 06:15:09;;;;;;;3.47;1.65;;;;;;;8.39;54.79;98471.13;4419517;32;33736;-67
2023/03/15 06:17:38;;;;;;;2.75;1.80;;;;;;;8.47;54.03;98457.12;4420385;32;34214;-67
2023/03/15 06:20:05;;;;;;;1.27;1.17;;;;;;;8.50;54.43;98472.88;4419907;32;32447;-69
2023/03/15 06:22:33;;;;;;;1.35;1.25;;;;;;;8.39;54.68;98478.28;4419674;32;34368;-66
2023/03/15 06:25:02;;;;;;;2.03;1.83;;;;;;;8.19;55.18;98479.97;4416032;32;34507;-67
2023/03/15 06:27:29;;;;;;;4.53;2.25;;;;;;;8.34;56.19;98478.66;4413780;32;35327;-68
2023/03/15 06:29:58;;;;;;;1.60;1.12;;;;;;;8.00;55.56;98470.03;4411391;32;34005;-67
2023/03/15 06:32:26;;;;;;;1.67;1.50;;;;;;;8.35;55.54;98480.34;4417549;32;34125;-67
2023/03/15 06:34:54;;;;;;;1.70;1.23;;;;;;;9.04;52.40;98477.03;4419820;32;34888;-67
2023/03/15 06:37:21;;;;;;;2.55;1.85;;;;;;;8.46;54.71;98489.28;4423003;32;33775;-68
2023/03/15 06:40:07;;;;;;;3.25;1.62;;;;;;;8.15;54.99;98482.06;4419463;32;33660;-69
2023/03/15 06:42:35;;;;;;;4.70;2.20;;;;;;;8.72;54.09;98477.19;4421507;32;32849;-67
2023/03/15 06:45:05;;;;;;;2.58;1.85;;;;;;;8.62;54.13;98468.31;4419961;32;35008;-70
2023/03/15 06:47:32;;;;;;;2.58;2.08;;;;;;;7.88;56.52;98476.37;4419391;32;33960;-68
2023/03/15 06:50:00;;;;;;;3.37;2.45;;;;;;;8.04;56.03;98468.78;4424347;32;34225;-68
2023/03/15 06:52:27;;;;;;;2.42;1.83;;;;;;;7.72;56.48;98484.81;4416909;32;33565;-68
2023/03/15 06:54:55;;;;;;;1.58;1.48;;;;;;;8.21;55.16;98490.50;4421107;32;33547;-67
2023/03/15 06:57:22;;;;;;;1.95;1.45;;;;;;;8.36;54.88;98497.19;4421045;32;34936;-72
2023/03/15 06:59:52;;;;;;;1.58;1.40;;;;;;;7.69;57.22;98499.22;4422292;32;33972;-67
2023/03/15 07:02:20;;;;;;;2.20;1.62;;;;;;;8.02;56.44;98507.19;4421070;32;34445;-71
2023/03/15 07:04:48;;;;;;;3.22;1.95;;;;;;;8.05;55.08;98502.44;4421250;32;33903;-68
2023/03/15 07:07:16;;;;;;;3.62;2.12;;;;;;;8.00;56.17;98506.50;4419698;32;34016;-68
2023/03/15 07:09:43;;;;;;;2.60;1.42;;;;;;;8.03;55.90;98511.56;4420104;32;34825;-70
2023/03/15 07:12:10;;;;;;;3.90;2.00;;;;;;;8.05;55.70;98510.44;4421198;32;33302;-70
2023/03/15 07:14:38;;;;;;;3.40;1.95;;;;;;;7.87;55.84;98506.66;4417284;32;34878;-69
2023/03/15 07:17:06;;;;;;;2.78;1.65;;;;;;;7.96;55.98;98515.69;4421091;32;34122;-70
2023/03/15 07:19:33;;;;;;;5.57;2.70;;;;;;;8.00;55.92;98519.81;4406889;32;32910;-70
2023/03/15 07:22:06;;;;;;;2.08;1.65;;;;;;;7.89;55.07;98523.34;4416000;32;34517;-69
2023/03/15 07:24:33;;;;;;;2.00;1.30;;;;;;;7.76;57.07;98534.19;4415076;32;32992;-71
2023/03/15 07:27:01;;;;;;;5.22;2.35;;;;;;;8.02;55.31;98548.00;4417202;32;35699;-69
2023/03/15 07:29:28;;;;;;;3.08;1.45;;;;;;;8.13;54.82;98533.78;4416435;32;33680;-71
2023/03/15 07:31:56;;;;;;;7.18;2.05;;;;;;;8.36;54.06;98547.84;4418687;32;33537;-71
2023/03/15 07:34:24;;;;;;;2.85;1.85;;;;;;;8.26;55.17;98544.28;4419394;32;34641;-69
2023/03/15 07:36:52;;;;;;;4.30;1.90;;;;;;;8.19;55.02;98559.09;4419709;32;33542;-70
2023/03/15 07:39:20;;;;;;;3.75;1.80;;;;;;;7.76;55.56;98557.31;4418436;32;35215;-69
2023/03/15 07:41:48;;;;;;;2.37;1.70;;;;;;;7.68;56.65;98573.94;4419995;32;33473;-68
2023/03/15 07:44:19;;;;;;;5.87;2.80;;;;;;;7.50;56.52;98578.91;4422947;32;33859;-68
2023/03/15 07:46:47;;;;;;;1.75;1.30;;;;;;;8.53;53.43;98575.78;4416760;32;32520;-71
2023/03/15 07:49:14;;;;;;;0.98;0.85;;;;;;;8.19;54.17;98569.75;4420110;32;34870;-68
2023/03/15 07:51:42;;;;;;;4.50;1.92;;;;;;;8.75;53.62;98566.78;4420133;32;33208;-70
2023/03/15 07:54:09;;;;;;;2.22;1.80;;;;;;;8.86;53.45;98580.06;4420396;32;33844;-69
2023/03/15 07:56:37;;;;;;;5.28;2.37;;;;;;;8.75;53.02;98578.28;4416487;32;34141;-68
2023/03/15 07:59:05;;;;;;;2.95;1.50;;;;;;;8.23;52.78;98572.03;4420769;32;34046;-68
2023/03/15 08:01:32;;;;;;;3.70;2.60;;;;;;;8.41;52.72;98569.69;4419787;32;34185;-68
2023/03/15 08:04:00;;;;;;;4.78;2.62;;;;;;;8.24;53.42;98579.03;4416512;32;35069;-69
2023/03/15 08:06:27;;;;;;;3.35;2.15;;;;;;;8.39;52.59;98585.78;4417433;32;33877;-69
2023/03/15 08:08:55;;;;;;;3.42;2.05;;;;;;;8.81;51.48;98598.28;4420526;32;34926;-68
2023/03/15 08:11:22;;;;;;;3.05;2.50;;;;;;;9.14;51.13;98599.84;4420222;32;35440;-69
2023/03/15 08:13:50;;;;;;;3.90;2.60;;;;;;;9.35;50.16;98598.97;4420100;32;33819;-68
2023/03/15 08:16:17;;;;;;;5.78;2.72;;;;;;;9.35;50.27;98597.13;4418168;32;34090;-69
2023/03/15 08:18:45;;;;;;;3.78;2.22;;;;;;;9.35;49.89;98589.13;4424519;32;33627;-70
2023/03/15 08:21:12;;;;;;;2.33;1.98;;;;;;;9.17;50.51;98596.06;4419070;32;33507;-69
2023/03/15 08:23:40;;;;;;;2.08;1.50;;;;;;;9.57;49.78;98596.09;4415260;32;33582;-68
2023/03/15 08:26:08;;;;;;;8.73;2.47;;;;;;;8.85;50.56;98602.38;4416503;32;34198;-69
2023/03/15 08:28:35;;;;;;;2.67;2.03;;;;;;;9.07;49.54;98598.69;4419173;32;35078;-68
2023/03/15 08:31:07;;;;;;;1.42;1.33;;;;;;;9.17;49.40;98599.56;4416264;32;34887;-70
2023/03/15 08:33:35;;;;;;;2.50;1.37;;;;;;;8.92;49.58;98606.19;4417729;32;33574;-69
2023/03/15 08:36:03;;;;;;;4.05;2.20;;;;;;;9.23;49.44;98609.72;4418552;32;34935;-69
2023/03/15 08:38:30;;;;;;;2.05;1.60;;;;;;;9.09;49.23;98591.41;4419590;32;34702;-68
2023/03/15 08:40:58;;;;;;;2.37;1.30;;;;;;;8.76;49.50;98603.16;4418795;32;34133;-68
2023/03/15 08:43:26;;;;;;;1.87;1.37;;;;;;;8.48;50.57;98605.50;4421055;32;33875;-68
2023/03/15 08:45:53;;;;;;;1.50;1.37;;;;;;;8.70;49.20;98619.69;4419462;32;32827;-69
2023/03/15 08:48:29;;;;;;;3.03;2.07;;;;;;;8.86;49.73;98606.75;4417871;32;33817;-68
2023/03/15 08:51:02;;;;;;;2.25;2.05;;;;;;;8.53;50.01;98619.28;4418145;32;33566;-69
2023/03/15 08:53:30;;;;;;;2.83;1.35;;;;;;;8.22;49.92;98628.13;4421421;32;34033;-67
2023/03/15 08:55:57;;;;;;;4.03;1.75;;;;;;;8.24;50.22;98632.34;4418983;32;34309;-68
2023/03/15 08:58:25;;;;;;;1.65;1.20;;;;;;;8.32;49.94;98645.06;4418132;32;33891;-67
2023/03/15 09:00:52;;;;;;;3.33;2.42;;;;;;;8.20;49.56;98649.56;4417882;32;33511;-68
2023/03/15 09:03:21;;;;;;;17.92;2.67;;;;;;;8.46;49.21;98660.78;4420118;32;34628;-68
2023/03/15 09:05:48;;;;;;;5.68;2.40;;;;;;;8.04;50.03;98655.31;4419511;32;33699;-67
2023/03/15 09:08:19;;;;;;;4.45;1.65;;;;;;;7.97;49.30;98646.13;4418492;32;33785;-69
2023/03/15 09:10:47;;;;;;;3.65;2.50;;;;;;;8.08;48.86;98674.56;4418906;32;34459;-68
2023/03/15 09:13:15;;;;;;;3.85;1.92;;;;;;;7.77;49.94;98670.88;4416864;32;33940;-69
2023/03/15 09:15:42;;;;;;;3.53;2.08;;;;;;;8.45;49.00;98687.59;4419296;32;33528;-67
2023/03/15 09:18:10;;;;;;;3.40;1.75;;;;;;;8.35;49.27;98687.47;4418416;32;33942;-69
2023/03/15 09:20:38;;;;;;;3.33;1.50;;;;;;;8.38;49.15;98701.44;4414082;32;33562;-71
2023/03/15 09:23:06;;;;;;;3.97;1.95;;;;;;;8.84;48.23;98697.59;4414053;32;33856;-70
2023/03/15 09:25:35;;;;;;;2.83;2.20;;;;;;;8.27;49.00;98708.56;4411322;32;32786;-69
2023/03/15 09:28:04;;;;;;;4.87;2.05;;;;;;;8.75;48.30;98694.84;4413368;32;34455;-69
2023/03/15 09:30:34;;;;;;;4.87;2.20;;;;;;;8.50;48.51;98707.53;4417015;32;32875;-70
2023/03/15 09:33:02;;;;;;;3.58;1.25;;;;;;;8.58;48.23;98710.44;4416305;32;34153;-70
2023/03/15 09:35:29;;;;;;;3.03;1.62;;;;;;;8.48;47.98;98714.84;4412738;32;33554;-69
2023/03/15 09:37:57;;;;;;;1.60;1.37;;;;;;;8.79;47.14;98715.78;4419617;32;34952;-71
2023/03/15 09:40:30;;;;;;;2.58;1.62;;;;;;;8.56;48.24;98730.19;4418265;32;33043;-69
2023/03/15 09:43:12;;;;;;;2.55;1.45;;;;;;;8.12;48.95;98734.63;4422871;32;34862;-66
2023/03/15 09:45:55;;;;;;;2.20;1.65;;;;;;;8.69;47.41;98727.38;4419272;32;35260;-66
2023/03/15 09:48:27;;;;;;;2.15;1.40;;;;;;;8.10;47.90;98732.09;4422003;32;33809;-70
2023/03/15 09:51:15;;;;;;;4.93;2.97;;;;;;;8.15;48.14;98721.94;4417776;32;34920;-69
2023/03/15 09:53:51;;;;;;;5.05;1.85;;;;;;;8.16;48.98;98728.09;4409395;32;34888;-69
2023/03/15 09:56:26;;;;;;;4.72;2.95;;;;;;;8.51;48.37;98738.59;4400817;32;32622;-69
2023/03/15 09:58:57;;;;;;;1.65;1.25;;;;;;;8.74;45.85;98726.03;4398403;32;33884;-70
2023/03/15 10:01:30;;;;;;;3.47;2.58;;;;;;;8.62;46.79;98727.87;4414715;32;34161;-71
2023/03/15 10:04:04;;;;;;;4.68;2.78;;;;;;;8.86;47.58;98734.81;4406117;32;33493;-69
2023/03/15 10:06:33;;;;;;;2.70;1.52;;;;;;;8.30;46.92;98732.31;4405112;32;33825;-67
2023/03/15 10:09:12;;;;;;;3.05;2.35;;;;;;;8.86;45.92;98741.00;4396392;32;34565;-70
2023/03/15 10:11:46;;;;;;;2.22;1.87;;;;;;;8.49;46.59;98739.69;4417247;32;34801;-69
2023/03/15 10:14:50;;;;;;;8.60;2.30;;;;;;;9.15;44.82;98734.16;4408045;32;32360;-66
2023/03/15 10:17:26;;;;;;;4.97;1.48;;;;;;;8.79;45.47;98754.97;4408325;32;34130;-66
2023/03/15 10:20:00;;;;;;;1.85;1.37;;;;;;;9.05;44.64;98734.09;4408114;32;34004;-66
2023/03/15 10:22:40;;;;;;;2.25;1.12;;;;;;;9.54;45.08;98741.44;4405488;32;34161;-68
2023/03/15 10:25:28;;;;;;;3.85;1.95;;;;;;;9.45;43.63;98747.59;4403668;32;33520;-72
2023/03/15 10:28:03;;;;;;;12.85;1.65;;;;;;;9.37;44.42;98746.53;4421055;32;34222;-67
2023/03/15 10:30:33;;;;;;;1.23;1.12;;;;;;;9.28;44.38;98750.84;4408708;32;33991;-66
2023/03/15 10:33:04;;;;;;;2.72;1.30;;;;;;;9.63;43.87;98746.97;4420309;32;32948;-68
2023/03/15 10:35:32;;;;;;;2.95;1.95;;;;;;;9.17;43.86;98756.25;4424044;32;33515;-68
2023/03/15 10:38:01;;;;;;;4.10;1.65;;;;;;;8.83;44.31;98759.94;4406900;32;33871;-72
2023/03/15 10:40:40;;;;;;;5.32;3.40;;;;;;;9.22;44.50;98762.06;4415186;32;33696;-68
2023/03/15 10:43:35;;;;;;;3.25;2.72;;;;;;;9.44;43.78;98755.75;4420098;32;33026;-68
2023/03/15 10:46:09;;;;;;;4.70;2.28;;;;;;;9.71;43.25;98769.38;4390373;32;33520;-71
2023/03/15 10:49:01;;;;;;;1.58;1.48;;;;;;;9.16;43.34;98770.59;4411061;32;35080;-68
2023/03/15 10:51:31;;;;;;;2.85;1.77;;;;;;;9.55;42.88;98772.53;4405894;32;33426;-67
2023/03/15 10:54:19;;;;;;;5.62;1.95;;;;;;;9.28;43.37;98775.72;4419022;32;32593;-67
2023/03/15 10:57:18;;;;;;;6.00;1.70;;;;;;;8.89;43.11;98771.06;4413745;32;33662;-67
2023/03/15 10:59:58;;;;;;;5.57;1.77;;;;;;;9.54;43.38;98772.66;4409428;32;34014;-67
2023/03/15 11:02:26;;;;;;;4.47;2.85;;;;;;;9.20;43.23;98796.03;4405459;32;34136;-68
2023/03/15 11:05:08;;;;;;;3.87;2.40;;;;;;;8.81;42.93;98790.38;4417444;32;34461;-66
2023/03/15 11:07:36;;;;;;;2.50;1.45;;;;;;;9.30;43.51;98805.81;4420710;32;33088;-66
2023/03/15 11:10:05;;;;;;;3.70;2.17;;;;;;;9.39;41.58;98781.97;4429066;32;33626;-67
2023/03/15 11:12:33;;;;;;;3.35;1.87;;;;;;;8.87;42.34;98792.56;4395225;32;34118;-66
2023/03/15 11:15:18;;;;;;;5.68;1.95;;;;;;;8.92;43.91;98792.16;4417454;32;33154;-66
2023/03/15 11:17:49;;;;;;;3.12;1.85;;;;;;;8.88;42.47;98799.56;4421518;32;33662;-65
2023/03/15 11:20:29;;;;;;;6.28;2.60;;;;;;;9.50;42.71;98797.91;4421573;32;33650;-65
2023/03/15 11:22:58;;;;;;;5.30;2.20;;;;;;;9.74;40.42;98801.16;4416733;32;33103;-66
2023/03/15 11:25:32;;;;;;;4.87;1.67;;;;;;;9.61;40.25;98805.88;4421106;32;32006;-68
2023/03/15 11:28:00;;;;;;;6.32;1.60;;;;;;;9.15;42.38;98801.78;4407120;32;34770;-65
2023/03/15 11:30:30;;;;;;;5.95;1.95;;;;;;;9.58;40.58;98806.13;4410311;32;35282;-66
2023/03/15 11:33:02;;;;;;;3.50;2.10;;;;;;;8.73;41.82;98800.81;4409844;32;34875;-68
2023/03/15 11:35:34;;;;;;;4.37;2.15;;;;;;;9.23;42.41;98811.81;4392733;32;33494;-66
2023/03/15 11:38:08;;;;;;;5.37;3.03;;;;;;;9.41;40.64;98807.59;4398143;32;33479;-67
2023/03/15 11:40:46;;;;;;;13.60;1.58;;;;;;;9.00;42.31;98811.91;4401046;32;33888;-66
2023/03/15 11:43:20;;;;;;;6.50;2.03;;;;;;;9.35;42.71;98800.09;4421028;32;32291;-65
2023/03/15 11:45:51;;;;;;;1.58;1.35;;;;;;;9.50;40.59;98797.91;4400468;32;31900;-67
2023/03/15 11:48:30;;;;;;;3.17;1.92;;;;;;;9.36;39.85;98799.09;4398899;32;33746;-67
2023/03/15 11:50:58;;;;;;;2.75;1.98;;;;;;;9.75;39.75;98805.53;4398127;32;34402;-65
2023/03/15 11:53:31;;;;;;;4.35;2.15;;;;;;;9.68;40.48;98804.37;4402504;32;35134;-66